createdAt,value
2019-05-01T00:02:49.118Z,10.83
2019-05-01T00:07:51.184Z,10.13
2019-05-01T00:12:52.852Z,11.30
2019-05-01T00:17:54.406Z,11.37
2019-05-01T00:22:56.097Z,13.17
2019-05-01T00:27:57.674Z,13.60
2019-05-01T00:32:59.263Z,12.17
2019-05-01T00:38:00.825Z,12.43
2019-05-01T00:43:02.519Z,11.77
2019-05-01T00:48:04.200Z,10.17
2019-05-01T00:53:05.776Z,9.70
2019-05-01T00:58:15.039Z,11.83
2019-05-01T01:03:16.800Z,12.30
2019-05-01T01:08:18.403Z,12.13
2019-05-01T01:13:19.989Z,12.87
2019-05-01T01:18:21.536Z,13.20
2019-05-01T01:23:23.594Z,13.27
2019-05-01T01:28:25.259Z,11.33
2019-05-01T01:33:26.940Z,11.93
2019-05-01T01:38:28.487Z,13.03
2019-05-01T01:43:39.411Z,12.17
2019-05-01T01:48:41.055Z,12.93
2019-05-01T01:53:42.874Z,13.30
2019-05-01T01:58:44.653Z,14.70
2019-05-01T02:03:50.840Z,12.83
2019-05-01T02:08:56.641Z,12.23
2019-05-01T02:13:56.720Z,11.57
2019-05-01T02:18:58.436Z,11.67
2019-05-01T02:24:00.035Z,11.80
2019-05-01T02:29:09.332Z,14.90
2019-05-01T02:34:11.031Z,15.67
2019-05-01T02:39:13.534Z,18.40
2019-05-01T02:44:21.573Z,18.53
2019-05-01T02:49:31.109Z,18.00
2019-05-01T02:54:33.332Z,16.57
2019-05-01T02:59:36.122Z,22.93
2019-05-01T03:04:37.826Z,20.50
2019-05-01T03:09:40.196Z,26.77
2019-05-01T03:14:42.398Z,29.03
2019-05-01T03:19:49.407Z,27.77
2019-05-01T03:24:51.106Z,27.70
2019-05-01T03:29:52.836Z,30.27
2019-05-01T03:34:54.826Z,27.67
2019-05-01T03:39:56.520Z,27.73
2019-05-01T03:44:58.189Z,27.80
2019-05-01T03:50:00.324Z,26.53
2019-05-01T03:55:02.154Z,24.17
2019-05-01T04:00:06.014Z,26.37
2019-05-01T04:05:07.726Z,23.50
2019-05-01T04:10:09.719Z,24.60
2019-05-01T04:15:11.725Z,25.17
2019-05-01T04:20:13.373Z,29.27
2019-05-01T04:25:15.034Z,28.90
2019-05-01T04:30:23.255Z,26.60
2019-05-01T04:35:44.588Z,26.97
2019-05-01T04:40:46.282Z,28.60
2019-05-01T04:45:47.914Z,27.50
2019-05-01T04:50:49.590Z,26.97
2019-05-01T04:55:51.404Z,25.83
2019-05-01T05:00:53.215Z,24.67
2019-05-01T05:05:54.905Z,24.77
2019-05-01T05:10:58.379Z,24.97
2019-05-01T05:16:18.992Z,24.93
2019-05-01T05:21:20.668Z,23.47
2019-05-01T05:26:22.448Z,25.93
2019-05-01T05:31:25.065Z,24.80
2019-05-01T05:36:27.679Z,26.17
2019-05-01T05:41:30.376Z,22.53
2019-05-01T05:46:32.093Z,22.07
2019-05-01T05:52:04.285Z,22.13
2019-05-01T05:57:15.397Z,21.00
2019-05-01T06:02:37.276Z,23.77
2019-05-01T06:07:49.024Z,26.03
2019-05-01T06:13:17.874Z,23.73
2019-05-01T06:18:39.389Z,24.20
2019-05-01T06:24:06.359Z,21.93
2019-05-01T06:29:04.374Z,24.73
2019-05-01T06:34:06.088Z,23.70
2019-05-01T06:39:11.742Z,23.93
2019-05-01T06:44:18.158Z,24.50
2019-05-01T06:49:36.541Z,24.33
2019-05-01T06:54:38.322Z,23.73
2019-05-01T06:59:40.587Z,25.47
2019-05-01T07:04:42.910Z,24.60
2019-05-01T07:09:49.219Z,24.50
2019-05-01T07:14:50.818Z,33.57
2019-05-01T07:20:30.450Z,25.13
2019-05-01T07:25:34.915Z,24.30
2019-05-01T07:30:50.011Z,22.47
2019-05-01T07:35:49.804Z,23.60
2019-05-01T07:40:51.582Z,25.97
2019-05-01T07:46:02.358Z,23.17
2019-05-01T07:51:06.848Z,23.27
2019-05-01T07:56:08.871Z,21.83
2019-05-01T08:01:18.483Z,22.70
2019-05-01T08:06:21.859Z,22.57
2019-05-01T08:11:23.342Z,21.67
2019-05-01T08:16:25.089Z,22.43
2019-05-01T08:21:46.444Z,21.70
2019-05-01T08:26:49.446Z,21.70
2019-05-01T08:32:08.603Z,23.53
2019-05-01T08:37:10.318Z,23.20
2019-05-01T08:42:12.000Z,21.67
2019-05-01T08:47:25.783Z,23.13
2019-05-01T08:52:28.341Z,22.47
2019-05-01T08:57:34.570Z,23.47
2019-05-01T09:02:41.019Z,24.33
2019-05-01T09:07:40.314Z,23.77
2019-05-01T09:12:42.530Z,28.67
2019-05-01T09:24:13.174Z,31.80
2019-05-01T09:29:19.187Z,28.77
2019-05-01T09:34:21.162Z,32.33
2019-05-01T09:39:22.799Z,31.53
2019-05-01T09:44:24.423Z,32.10
2019-05-01T09:49:25.982Z,30.35
2019-05-01T09:54:34.830Z,33.33
2019-05-01T09:59:36.384Z,34.48
2019-05-01T10:04:37.978Z,30.40
2019-05-01T10:09:39.653Z,33.87
2019-05-01T10:14:41.227Z,30.88
2019-05-01T10:19:42.791Z,33.30
2019-05-01T10:24:44.361Z,34.77
2019-05-01T10:30:04.191Z,30.37
2019-05-01T10:35:19.129Z,27.17
2019-05-01T10:40:22.221Z,22.62
2019-05-01T10:45:22.760Z,19.45
2019-05-01T10:50:24.428Z,21.50
2019-05-01T10:55:26.848Z,14.53
2019-05-01T11:00:28.398Z,19.67
2019-05-01T11:05:29.960Z,19.82
2019-05-01T11:10:31.559Z,18.45
2019-05-01T11:15:33.245Z,19.17
2019-05-01T11:20:34.904Z,17.73
2019-05-01T11:25:39.677Z,19.77
2019-05-01T11:30:41.253Z,26.45
2019-05-01T11:36:20.664Z,18.80
2019-05-01T11:41:34.897Z,18.52
2019-05-01T11:46:36.475Z,21.97
2019-05-01T11:51:38.054Z,20.02
2019-05-01T11:56:39.723Z,15.10
2019-05-01T12:01:41.448Z,20.80
2019-05-01T12:06:43.069Z,16.40
2019-05-01T12:11:46.648Z,18.17
2019-05-01T12:17:05.561Z,22.30
2019-05-01T12:22:07.306Z,18.37
2019-05-01T12:27:09.054Z,15.40
2019-05-01T12:32:10.625Z,15.35
2019-05-01T12:37:23.365Z,16.35
2019-05-01T12:42:25.558Z,13.62
2019-05-01T12:47:48.416Z,11.80
2019-05-01T12:53:18.957Z,11.60
2019-05-01T12:58:20.552Z,15.05
2019-05-01T13:03:22.285Z,13.50
2019-05-01T13:08:23.855Z,14.50
2019-05-01T13:13:25.424Z,13.10
2019-05-01T13:18:27.001Z,12.28
2019-05-01T13:23:28.570Z,11.53
2019-05-01T13:28:49.910Z,11.28
2019-05-01T13:33:51.476Z,10.10
2019-05-01T13:38:53.069Z,8.68
2019-05-01T13:43:54.634Z,8.10
2019-05-01T13:48:56.217Z,9.68
2019-05-01T13:53:57.827Z,8.93
2019-05-01T13:58:59.569Z,11.83
2019-05-01T14:04:01.134Z,11.60
2019-05-01T14:09:05.179Z,12.23
2019-05-01T14:14:06.875Z,12.95
2019-05-01T14:19:08.473Z,10.80
2019-05-01T14:24:22.391Z,11.55
2019-05-01T14:29:23.976Z,9.25
2019-05-01T14:34:25.578Z,13.83
2019-05-01T14:39:27.165Z,11.65
2019-05-01T14:44:36.613Z,8.73
2019-05-01T14:49:32.329Z,10.32
2019-05-01T14:54:33.908Z,11.25
2019-05-01T14:59:35.488Z,8.35
2019-05-01T15:04:37.072Z,7.50
2019-05-01T15:09:38.636Z,6.40
2019-05-01T15:14:59.128Z,9.20
2019-05-01T15:20:03.277Z,7.37
2019-05-01T15:25:05.004Z,9.05
2019-05-01T15:30:07.300Z,9.05
2019-05-01T15:35:09.066Z,10.35
2019-05-01T15:40:27.364Z,7.67
2019-05-01T15:45:29.028Z,9.78
2019-05-01T15:50:30.702Z,7.87
2019-05-01T15:55:32.279Z,10.38
2019-05-01T16:00:33.839Z,7.47
2019-05-01T16:05:35.407Z,7.30
2019-05-01T16:10:44.560Z,8.53
2019-05-01T16:15:46.115Z,5.50
2019-05-01T16:20:47.833Z,8.00
2019-05-01T16:25:49.536Z,6.50
2019-05-01T16:30:51.240Z,7.12
2019-05-01T16:35:52.800Z,5.62
2019-05-01T16:41:01.820Z,8.15
2019-05-01T16:46:04.173Z,10.08
2019-05-01T16:51:05.845Z,7.03
2019-05-01T16:56:07.549Z,5.95
2019-05-01T17:01:14.445Z,7.78
2019-05-01T17:06:33.906Z,8.15
2019-05-01T17:11:35.570Z,7.53
2019-05-01T17:16:37.127Z,6.87
2019-05-01T17:21:38.789Z,10.48
2019-05-01T17:26:40.326Z,9.48
2019-05-01T17:31:41.930Z,8.15
2019-05-01T17:36:43.704Z,10.05
2019-05-01T17:41:45.268Z,6.97
2019-05-01T17:46:48.640Z,8.90
2019-05-01T17:51:50.320Z,8.00
2019-05-01T17:56:53.698Z,8.73
2019-05-01T18:02:10.236Z,10.82
2019-05-01T18:07:10.760Z,11.20
2019-05-01T18:12:12.456Z,10.98
2019-05-01T18:17:14.061Z,11.95
2019-05-01T18:22:26.946Z,9.50
2019-05-01T18:27:54.534Z,10.45
2019-05-01T18:32:56.696Z,10.53
2019-05-01T18:38:06.348Z,12.82
2019-05-01T18:43:07.723Z,16.45
2019-05-01T18:48:09.400Z,15.55
2019-05-01T18:53:12.534Z,23.10
2019-05-01T18:58:14.382Z,13.98
2019-05-01T19:03:16.135Z,12.40
2019-05-01T19:08:17.745Z,10.98
2019-05-01T19:13:20.053Z,9.08
2019-05-01T19:18:21.780Z,10.93
2019-05-01T19:23:27.713Z,9.15
2019-05-01T19:28:27.002Z,10.10
2019-05-01T19:33:28.791Z,11.05
2019-05-01T19:38:34.859Z,11.57
2019-05-01T19:43:35.888Z,12.70
2019-05-01T19:48:37.540Z,11.20
2019-05-01T19:53:39.115Z,15.17
2019-05-01T19:58:40.679Z,21.60
2019-05-01T20:03:42.313Z,10.90
2019-05-01T20:08:43.871Z,11.33
2019-05-01T20:13:45.555Z,10.20
2019-05-01T20:18:47.240Z,12.63
2019-05-01T20:23:48.907Z,11.17
2019-05-01T20:28:50.471Z,12.50
2019-05-01T20:33:52.178Z,10.70
2019-05-01T20:38:53.869Z,12.27
2019-05-01T20:43:55.468Z,12.73
2019-05-01T20:49:01.467Z,17.07
2019-05-01T20:54:00.521Z,13.30
2019-05-01T20:59:04.616Z,15.97
2019-05-01T21:04:17.191Z,11.10
2019-05-01T21:09:21.569Z,11.80
2019-05-01T21:14:23.253Z,12.47
2019-05-01T21:19:25.751Z,13.07
2019-05-01T21:24:28.350Z,18.30
2019-05-01T21:29:29.911Z,19.73
2019-05-01T21:34:33.317Z,23.50
2019-05-01T21:39:35.025Z,21.63
2019-05-01T21:44:36.691Z,21.77
2019-05-01T21:49:38.244Z,22.17
2019-05-01T21:54:39.813Z,24.27
2019-05-01T21:59:44.726Z,20.10
2019-05-01T22:04:44.816Z,19.13
2019-05-01T22:09:50.423Z,19.33
2019-05-01T22:14:57.237Z,21.57
2019-05-01T22:19:58.893Z,21.87
2019-05-01T22:25:09.824Z,21.30
2019-05-01T22:30:28.330Z,20.63
2019-05-01T22:35:32.708Z,22.23
2019-05-01T22:41:07.366Z,21.73
2019-05-01T22:46:16.448Z,21.70
2019-05-01T22:51:21.319Z,22.23
2019-05-01T22:56:23.665Z,25.17
2019-05-01T23:01:26.227Z,25.70
2019-05-01T23:06:27.781Z,22.80
2019-05-01T23:11:31.995Z,23.80
2019-05-01T23:16:39.220Z,25.13
2019-05-01T23:21:40.765Z,26.73
2019-05-01T23:26:42.318Z,27.03
2019-05-01T23:31:43.910Z,26.27
2019-05-01T23:36:45.480Z,26.20
2019-05-01T23:41:47.355Z,26.77
2019-05-01T23:46:48.926Z,24.87
2019-05-01T23:51:50.620Z,25.33
2019-05-01T23:56:52.268Z,25.87
